Time;durP1;ratioP1;P1;durP2;ratioP2;P2;SDS_P1;SDS_P2;PMS_P1;PMS_P2;Temp;Humidity;BMP_temperature;BMP_pressure;BME280_temperature;BME280_humidity;BME280_pressure;Samples;Min_cycle;Max_cycle;Signal;HPM_P1;HPM_P2
2022/01/07 00:00:18;;;;;;;5.40;2.95;;;3.30;56.60;;;1.30;62.37;101491.91;8391922;28;20141;-84
2022/01/07 00:04:40;;;;;;;4.53;2.17;;;3.30;56.50;;;1.28;62.61;101491.06;8405753;28;20119;-84
2022/01/07 00:09:02;;;;;;;3.38;2.22;;;3.30;56.50;;;1.26;62.17;101490.19;8393352;28;20468;-84
2022/01/07 00:13:25;;;;;;;4.32;3.00;;;3.20;56.50;;;1.25;62.39;101497.94;8397673;28;20032;-84
2022/01/07 00:17:47;;;;;;;6.85;3.10;;;3.10;56.40;;;1.10;62.39;101486.84;8409687;28;20111;-83
2022/01/07 00:22:09;;;;;;;6.85;2.47;;;3.10;56.80;;;1.00;62.34;101477.47;8403068;28;20123;-84
2022/01/07 00:26:30;;;;;;;4.53;2.30;;;3.00;56.50;;;1.08;62.44;101491.16;8393112;28;20489;-84
2022/01/07 00:30:52;;;;;;;5.13;2.78;;;2.90;56.50;;;0.91;62.70;101479.19;8391168;28;20123;-84
2022/01/07 00:35:16;;;;;;;4.15;2.65;;;2.90;56.50;;;0.77;62.55;101469.81;8414312;28;20519;-84
2022/01/07 00:39:39;;;;;;;4.15;2.22;;;2.80;56.60;;;0.91;62.35;101499.78;8368924;28;20111;-84
2022/01/07 00:44:00;;;;;;;5.07;2.42;;;2.80;56.50;;;0.88;62.42;101493.75;8387107;28;20116;-84
2022/01/07 00:48:22;;;;;;;6.60;3.63;;;2.80;56.50;;;0.56;62.42;101451.88;8418128;28;20552;-85
2022/01/07 00:52:44;;;;;;;11.48;4.95;;;2.70;56.60;;;0.76;62.66;101486.09;8404147;28;20123;-83
2022/01/07 00:57:06;;;;;;;13.48;7.53;;;2.70;56.60;;;0.65;62.46;101472.44;8373847;28;20115;-84
2022/01/07 01:01:27;;;;;;;13.43;7.30;;;2.60;56.60;;;0.77;62.58;101497.25;8383516;28;20111;-84
2022/01/07 01:05:49;;;;;;;15.18;7.20;;;2.60;56.70;;;0.73;62.61;101488.69;8383599;28;20116;-84
2022/01/07 01:10:13;;;;;;;10.18;5.00;;;2.60;56.70;;;0.71;62.57;101484.41;8373026;28;20577;-84
2022/01/07 01:14:35;;;;;;;10.48;4.55;;;2.60;56.70;;;0.59;62.50;101470.69;8402415;28;20120;-84
2022/01/07 01:18:58;;;;;;;7.45;3.45;;;2.60;56.70;;;0.61;62.59;101469.00;8397236;28;20119;-84
2022/01/07 01:23:19;;;;;;;5.25;3.30;;;2.50;56.70;;;0.52;62.47;101463.03;8405976;28;20115;-84
2022/01/07 01:27:42;;;;;;;8.45;2.97;;;2.40;56.70;;;0.51;62.64;101461.31;8382905;28;20119;-84
2022/01/07 01:32:04;;;;;;;7.45;3.15;;;2.30;56.70;;;0.50;62.95;101454.47;8394594;28;20556;-84
2022/01/07 01:36:26;;;;;;;3.88;2.28;;;2.40;56.80;;;0.52;62.79;101470.75;8385440;28;20115;-83
2022/01/07 01:40:48;;;;;;;5.18;2.88;;;2.40;56.80;;;0.49;62.76;101463.00;8409314;28;20544;-83
2022/01/07 01:45:11;;;;;;;4.32;2.42;;;2.40;56.80;;;0.41;62.75;101440.78;8374828;28;20564;-84
2022/01/07 01:49:33;;;;;;;3.30;2.00;;;2.40;56.90;;;0.48;62.69;101439.03;8376127;28;20103;-83
2022/01/07 01:53:55;;;;;;;4.07;2.38;;;2.40;57.00;;;0.64;62.62;101447.56;8387130;28;20054;-83
2022/01/07 01:58:17;;;;;;;3.13;1.85;;;2.40;57.10;;;0.64;63.08;101427.84;8387898;28;20131;-83
2022/01/07 02:02:39;;;;;;;6.20;1.65;;;2.50;57.20;;;0.62;62.95;101419.31;8376260;28;20119;-83
2022/01/07 02:07:01;;;;;;;6.30;2.33;;;2.50;57.30;;;0.69;62.80;101407.28;8401300;28;20122;-83
2022/01/07 02:11:23;;;;;;;4.25;2.17;;;2.60;57.40;;;0.75;62.91;101404.69;8381695;28;20131;-83
2022/01/07 02:15:46;;;;;;;4.75;2.35;;;2.50;57.40;;;0.74;62.91;101402.16;8406538;28;20135;-83
2022/01/07 02:20:11;;;;;;;2.60;1.77;;;2.60;57.40;;;0.72;63.42;101389.28;8372665;28;20131;-83
2022/01/07 02:24:35;;;;;;;4.07;2.00;;;2.60;57.40;;;0.77;63.07;101391.84;8388813;28;20067;-83
2022/01/07 02:28:56;;;;;;;5.93;2.10;;;2.70;57.40;;;0.90;63.01;101396.06;8395291;28;20557;-84
2022/01/07 02:33:18;;;;;;;4.28;2.20;;;2.80;57.40;;;0.67;62.95;101352.47;8389263;28;20038;-85
2022/01/07 02:37:40;;;;;;;4.07;1.80;;;2.80;57.40;;;0.96;62.96;101390.91;8386160;28;20115;-83
2022/01/07 02:42:03;;;;;;;4.60;2.00;;;2.80;57.40;;;0.78;63.13;101365.28;8378033;28;20107;-83
2022/01/07 02:46:24;;;;;;;4.28;2.17;;;2.80;57.40;;;0.99;63.00;101403.72;8383501;28;20123;-83
2022/01/07 02:50:46;;;;;;;5.55;2.03;;;2.70;57.30;;;1.01;63.20;101393.44;8400723;28;20114;-83
2022/01/07 02:55:09;;;;;;;5.57;2.20;;;2.90;57.30;;;0.78;62.97;101347.28;8387199;28;20036;-84
2022/01/07 02:59:30;;;;;;;2.22;1.90;;;2.90;57.30;;;1.05;62.92;101377.13;8378228;28;20575;-83
2022/01/07 03:03:52;;;;;;;4.95;2.35;;;2.90;57.30;;;1.02;63.17;101374.56;8381902;28;20120;-84
2022/01/07 03:08:14;;;;;;;2.40;1.95;;;2.90;57.30;;;0.95;62.92;101357.50;8409866;28;20123;-84
2022/01/07 03:12:37;;;;;;;7.75;2.20;;;3.20;57.40;;;1.00;63.13;101359.19;8407631;28;20125;-83
2022/01/07 03:16:59;;;;;;;6.28;2.55;;;3.00;57.30;;;1.11;63.09;101379.69;8409905;28;20123;-84
2022/01/07 03:21:20;;;;;;;3.85;1.90;;;3.00;57.30;;;1.01;63.14;101362.59;8396626;28;20119;-84
2022/01/07 03:25:46;;;;;;;4.95;2.10;;;3.00;57.30;;;1.02;63.14;101349.72;8396493;28;20111;-83
2022/01/07 03:30:10;;;;;;;4.05;2.10;;;3.00;57.30;;;0.99;63.15;101352.31;8394715;28;20123;-84
2022/01/07 03:34:32;;;;;;;5.97;2.33;;;3.00;57.30;;;0.97;62.99;101337.75;8388116;28;20050;-83
2022/01/07 03:38:54;;;;;;;3.40;1.90;;;3.00;57.30;;;0.54;62.79;101261.75;8410109;28;20545;-83
2022/01/07 03:43:16;;;;;;;4.45;2.40;;;3.00;57.30;;;1.12;63.14;101363.38;8390820;28;20127;-83
2022/01/07 03:47:39;;;;;;;6.07;2.17;;;3.00;57.30;;;0.98;63.31;101334.34;8377786;28;20111;-83
2022/01/07 03:52:00;;;;;;;2.42;1.58;;;2.90;57.30;;;1.05;63.10;101338.56;8355335;28;20127;-83
2022/01/07 03:56:22;;;;;;;2.88;2.10;;;3.00;57.30;;;1.05;63.11;101335.97;8389999;28;20495;-84
2022/01/07 04:00:44;;;;;;;3.50;2.20;;;3.00;57.30;;;1.14;63.42;101348.81;8400433;28;20107;-83
2022/01/07 04:05:07;;;;;;;2.85;1.98;;;3.00;57.30;;;1.11;63.39;101343.69;8392766;28;20115;-83
2022/01/07 04:09:29;;;;;;;4.00;2.00;;;3.00;57.30;;;1.00;63.04;101309.44;8375739;28;20123;-83
2022/01/07 04:13:51;;;;;;;3.40;1.92;;;2.90;57.30;;;1.00;63.22;101312.00;8366738;28;20040;-84
2022/01/07 04:18:12;;;;;;;3.72;1.95;;;3.00;57.40;;;1.05;62.93;101316.28;8383334;28;20055;-83
2022/01/07 04:22:35;;;;;;;4.22;2.20;;;2.90;57.30;;;0.99;63.14;101302.59;8383295;28;20115;-84
2022/01/07 04:26:57;;;;;;;2.45;2.08;;;2.90;57.30;;;1.12;63.37;101311.09;8391067;28;20119;-84
2022/01/07 04:31:18;;;;;;;3.33;1.98;;;3.30;57.50;;;1.13;62.97;101313.63;8370689;28;20037;-84
2022/01/07 04:35:42;;;;;;;3.08;1.70;;;2.90;57.50;;;1.13;63.11;101311.06;8396698;28;20499;-84
2022/01/07 04:40:07;;;;;;;2.45;2.08;;;3.00;57.60;;;1.04;63.27;101298.28;8389448;28;20110;-83
2022/01/07 04:44:29;;;;;;;3.83;1.93;;;3.00;57.60;;;1.16;63.31;101307.63;8391026;28;20120;-83
2022/01/07 04:48:50;;;;;;;2.97;1.98;;;2.90;57.60;;;1.10;63.13;101288.78;8400033;28;20046;-85
2022/01/07 04:53:12;;;;;;;6.40;2.42;;;3.00;57.60;;;1.10;63.24;101280.22;8392717;28;20133;-83
2022/01/07 04:57:34;;;;;;;4.85;2.38;;;3.00;57.60;;;1.18;63.25;101293.03;8391702;28;20538;-83
2022/01/07 05:01:56;;;;;;;5.90;2.35;;;3.00;57.60;;;1.18;63.39;101282.75;8391289;28;20107;-84
2022/01/07 05:10:58;;;;;;;5.07;2.50;;;3.00;57.70;;;1.14;63.27;101263.94;8406224;28;20119;-83
2022/01/07 05:15:22;;;;;;;6.47;2.42;;;3.00;57.70;;;1.06;63.49;101240.84;8368963;28;20033;-84
2022/01/07 05:19:44;;;;;;;3.20;2.22;;;3.10;57.70;;;1.13;63.29;101241.63;8383128;28;20033;-83
2022/01/07 05:24:06;;;;;;;4.05;2.42;;;3.00;57.60;;;1.08;63.40;101227.94;8369072;28;20051;-84
2022/01/07 05:28:28;;;;;;;3.22;2.38;;;3.00;57.80;;;1.19;63.62;101233.88;8365337;28;20111;-83
2022/01/07 05:32:49;;;;;;;2.55;2.03;;;3.10;57.70;;;1.29;63.30;101248.34;8381803;28;20039;-83
2022/01/07 05:37:11;;;;;;;5.70;3.05;;;3.10;57.80;;;1.30;63.43;101244.94;8366978;28;20227;-83
2022/01/07 05:41:33;;;;;;;3.88;2.30;;;3.10;57.90;;;1.26;63.41;101225.22;8372380;28;20032;-84
2022/01/07 05:45:55;;;;;;;4.43;2.50;;;3.20;57.80;;;1.34;63.52;101225.16;8380258;28;20040;-82
2022/01/07 05:50:16;;;;;;;4.75;2.17;;;3.20;57.80;;;1.31;63.44;101215.75;8392186;28;20043;-83
2022/01/07 05:54:38;;;;;;;5.35;2.28;;;3.20;57.70;;;1.31;63.56;101207.19;8372939;28;20035;-82
2022/01/07 05:59:00;;;;;;;4.35;2.20;;;3.40;57.80;;;1.29;63.75;101196.91;8390969;28;20028;-84
2022/01/07 06:03:22;;;;;;;3.50;2.05;;;3.20;57.80;;;1.25;63.59;101174.66;8397792;28;20043;-84
2022/01/07 06:07:44;;;;;;;5.05;2.63;;;3.20;57.70;;;1.40;63.54;101209.66;8356029;28;20062;-84
2022/01/07 06:12:06;;;;;;;6.80;2.22;;;3.10;57.70;;;1.31;63.50;101179.72;8367910;28;20043;-83
2022/01/07 06:16:28;;;;;;;5.00;2.20;;;3.30;57.80;;;1.32;63.39;101181.47;8376751;28;20165;-83
2022/01/07 06:20:50;;;;;;;2.97;2.30;;;3.20;57.70;;;1.38;63.64;101189.97;8362861;28;20046;-83
2022/01/07 06:25:12;;;;;;;6.25;2.05;;;3.20;57.70;;;1.43;63.50;101191.66;8371554;28;20047;-82
2022/01/07 06:29:34;;;;;;;6.25;2.50;;;3.50;57.90;;;1.38;63.70;101179.66;8361986;28;20573;-86
2022/01/07 06:33:58;;;;;;;3.33;1.88;;;3.30;57.90;;;1.42;63.74;101181.34;8358099;28;20047;-84
2022/01/07 06:38:19;;;;;;;3.58;2.28;;;3.30;57.90;;;1.40;63.81;101177.94;8350263;28;20032;-81
2022/01/07 06:42:41;;;;;;;7.57;2.97;;;3.30;57.90;;;1.45;63.94;101184.75;8364386;28;20116;-82
2022/01/07 06:47:06;;;;;;;4.32;2.92;;;3.30;58.00;;;1.40;63.72;101165.06;8364990;28;20474;-81
2022/01/07 06:51:28;;;;;;;3.83;2.53;;;3.30;57.90;;;1.47;63.46;101177.03;8365824;28;20039;-83
2022/01/07 06:55:50;;;;;;;4.63;2.60;;;3.30;58.00;;;1.54;63.63;101186.38;8366181;28;20431;-81
2022/01/07 07:00:12;;;;;;;2.35;2.15;;;3.40;58.00;;;1.40;63.69;101157.34;8368758;28;20033;-82
2022/01/07 07:04:34;;;;;;;3.95;2.65;;;3.40;57.90;;;1.47;63.70;101164.16;8401190;28;20115;-82
2022/01/07 07:08:56;;;;;;;2.83;2.50;;;3.40;58.00;;;1.60;63.93;101176.03;8377264;28;20243;-82
2022/01/07 07:13:17;;;;;;;5.70;2.40;;;3.50;58.00;;;1.55;63.70;101176.06;8355981;28;20045;-81
2022/01/07 07:17:39;;;;;;;2.80;2.17;;;3.70;58.10;;;1.54;63.84;101171.78;8403719;28;20024;-81
2022/01/07 07:22:01;;;;;;;4.68;2.50;;;3.50;58.00;;;1.54;63.54;101170.94;8409903;28;20028;-81
2022/01/07 07:26:22;;;;;;;3.72;2.38;;;3.50;58.00;;;1.61;63.50;101177.72;8378635;28;20127;-81
2022/01/07 07:30:45;;;;;;;3.33;2.17;;;3.50;58.00;;;1.59;63.74;101166.56;8412705;28;20119;-83
2022/01/07 07:39:41;;;;;;;3.72;2.28;;;3.50;58.00;;;1.70;63.61;101162.19;8394353;28;20119;-83
2022/01/07 07:44:04;;;;;;;4.05;2.72;;;3.60;58.00;;;1.71;63.97;101155.31;8391320;28;20123;-81
2022/01/07 07:48:26;;;;;;;3.20;2.45;;;3.60;58.10;;;1.66;63.55;101139.91;8395941;28;20042;-81
2022/01/07 07:52:48;;;;;;;6.78;2.42;;;3.50;58.00;;;1.80;63.76;101151.75;8381521;28;20064;-82
2022/01/07 07:57:09;;;;;;;7.10;3.10;;;3.60;58.10;;;1.83;63.69;101151.72;8391478;28;20500;-82
2022/01/07 08:01:31;;;;;;;5.80;2.42;;;3.60;58.10;;;1.85;63.70;101150.00;8404373;28;20044;-81
2022/01/07 08:05:53;;;;;;;2.47;2.22;;;3.70;58.10;;;1.77;64.07;101116.59;8398029;28;20046;-81
2022/01/07 08:10:21;;;;;;;3.53;2.35;;;3.70;58.10;;;1.75;63.93;101111.47;8392618;28;20047;-82
2022/01/07 08:19:23;;;;;;;3.55;2.33;;;3.80;58.10;;;1.90;64.05;101107.00;8371814;28;20033;-82
2022/01/07 08:23:46;;;;;;;6.50;2.88;;;3.80;58.20;;;2.06;64.08;101123.97;8413970;28;20241;-81
2022/01/07 08:28:09;;;;;;;6.53;2.40;;;3.90;58.20;;;2.04;63.68;101107.66;8402514;28;20055;-81
2022/01/07 08:37:10;;;;;;;5.32;2.55;;;3.90;58.10;;;2.10;63.69;101093.84;8405850;28;20070;-81
2022/01/07 08:41:33;;;;;;;5.45;2.60;;;4.00;58.20;;;2.23;64.00;101108.25;8409041;28;20039;-81
2022/01/07 08:45:55;;;;;;;6.20;2.47;;;4.00;58.10;;;2.26;63.92;101099.63;8386806;28;20379;-82
2022/01/07 08:50:17;;;;;;;6.57;2.30;;;4.10;58.10;;;2.05;64.01;101049.28;8387785;28;20481;-81
2022/01/07 08:54:39;;;;;;;6.18;2.47;;;4.10;58.10;;;2.20;63.92;101067.94;8384329;28;20043;-81
2022/01/07 08:59:00;;;;;;;5.38;3.50;;;4.00;58.00;;;2.30;63.63;101081.53;8371715;28;20050;-81
2022/01/07 09:03:23;;;;;;;7.68;3.35;;;4.30;58.20;;;2.29;64.01;101058.34;8399986;28;20303;-81
2022/01/07 09:07:45;;;;;;;6.78;2.97;;;4.30;58.10;;;2.52;63.91;101086.34;8397015;28;20704;-82
2022/01/07 09:12:08;;;;;;;6.47;3.10;;;4.20;58.10;;;2.55;64.00;101082.00;8391206;28;20042;-81
2022/01/07 09:16:30;;;;;;;5.57;2.78;;;4.30;58.10;;;2.55;63.72;101076.84;8395693;28;20032;-81
2022/01/07 09:20:52;;;;;;;5.45;3.13;;;4.40;58.10;;;2.64;64.16;101075.81;8381137;28;20032;-81
2022/01/07 09:25:14;;;;;;;5.72;2.92;;;4.40;58.10;;;2.59;64.10;101050.16;8388893;28;20118;-81
2022/01/07 09:29:35;;;;;;;10.38;4.10;;;4.50;58.10;;;2.77;64.13;101066.16;8375658;28;20035;-81
2022/01/07 09:33:57;;;;;;;6.47;3.20;;;4.50;58.10;;;2.81;63.87;101062.66;8401203;28;20047;-81
2022/01/07 09:38:21;;;;;;;6.65;2.95;;;4.70;58.10;;;2.86;63.57;101055.66;8390322;28;20031;-81
2022/01/07 09:43:04;;;;;;;7.72;3.45;;;4.50;58.00;;;2.66;63.92;101019.94;8415052;28;20040;-81
2022/01/07 09:47:27;;;;;;;7.88;3.53;;;4.70;58.00;;;3.01;63.91;101057.13;8374158;28;20042;-82
2022/01/07 09:51:49;;;;;;;3.47;2.70;;;4.80;58.00;;;3.02;64.25;101045.91;8390585;28;20166;-81
2022/01/07 09:56:11;;;;;;;4.25;2.10;;;4.80;58.00;;;2.99;63.91;101030.50;8430750;28;20043;-82
2022/01/07 10:00:37;;;;;;;3.38;2.63;;;4.90;58.00;;;3.15;63.77;101041.38;8403780;28;20032;-82
2022/01/07 10:05:17;;;;;;;4.22;2.70;;;4.90;58.30;;;3.04;64.01;101006.31;8383763;28;20135;-82
2022/01/07 10:09:41;;;;;;;4.75;2.35;;;5.10;58.00;;;3.25;63.82;101022.28;8397633;28;20115;-82
2022/01/07 10:14:22;;;;;;;5.03;2.95;;;5.10;57.90;;;3.38;63.72;101026.31;8394580;28;20043;-82
2022/01/07 10:18:44;;;;;;;4.78;2.80;;;5.20;57.80;;;3.23;63.69;100993.91;8400162;28;20126;-83
2022/01/07 10:23:17;;;;;;;3.92;2.40;;;5.20;57.90;;;3.47;63.84;101018.34;8381972;28;20123;-82
2022/01/07 10:27:39;;;;;;;3.67;2.67;;;5.30;57.90;;;3.55;63.91;101005.28;8408919;28;20119;-82
2022/01/07 10:32:23;;;;;;;7.40;3.53;;;5.30;57.90;;;3.58;64.09;101007.78;8399076;28;20092;-82
2022/01/07 10:36:45;;;;;;;6.05;2.85;;;5.40;57.80;;;3.66;63.80;100986.97;8385319;28;20248;-83
2022/01/07 10:41:13;;;;;;;4.07;2.95;;;5.40;57.80;;;3.75;64.15;100994.50;8408076;28;20106;-82
2022/01/07 10:45:35;;;;;;;5.47;2.83;;;5.60;57.80;;;3.94;63.74;100988.06;8376689;28;20111;-83
2022/01/07 10:50:22;;;;;;;7.00;2.85;;;5.60;57.90;;;3.96;64.08;100968.16;8404126;28;20119;-82
2022/01/07 10:54:44;;;;;;;3.75;2.20;;;5.80;57.80;;;4.15;63.99;100972.91;8388673;28;20040;-82
2022/01/07 10:59:14;;;;;;;5.10;2.33;;;5.80;57.70;;;4.20;63.78;100971.91;8406505;28;20453;-83
2022/01/07 11:03:36;;;;;;;4.47;2.42;;;6.00;57.60;;;4.27;63.72;100964.84;8385667;28;20128;-82
2022/01/07 11:07:59;;;;;;;4.38;2.70;;;6.00;57.30;;;4.32;63.84;100968.16;8383567;28;20470;-82
2022/01/07 11:12:22;;;;;;;5.32;2.63;;;6.10;57.40;;;4.29;63.49;100942.38;8384042;28;20494;-83
2022/01/07 11:16:44;;;;;;;6.13;2.80;;;6.10;57.30;;;4.28;63.51;100939.84;8380399;28;20033;-83
2022/01/07 11:21:07;;;;;;;3.67;2.30;;;6.20;57.30;;;4.42;63.64;100967.03;8385636;28;20107;-83
2022/01/07 11:25:33;;;;;;;5.78;2.35;;;6.20;57.30;;;4.31;63.79;100930.25;8407962;28;20509;-84
2022/01/07 11:30:04;;;;;;;2.20;2.00;;;6.20;57.20;;;4.50;63.35;100956.50;8381041;28;20043;-83
2022/01/07 11:34:26;;;;;;;3.00;2.10;;;6.30;57.10;;;4.45;63.66;100942.81;8396088;28;20119;-83
2022/01/07 11:38:48;;;;;;;4.35;2.00;;;6.30;57.10;;;4.56;63.65;100934.78;8401137;28;20039;-83
2022/01/07 11:43:18;;;;;;;5.07;2.08;;;6.30;57.20;;;4.58;63.55;100927.84;8417145;28;20032;-83
2022/01/07 11:47:50;;;;;;;4.57;2.20;;;6.40;57.10;;;4.57;63.68;100920.97;8408766;28;20046;-83
2022/01/07 11:52:31;;;;;;;7.03;2.22;;;6.40;57.20;;;4.61;63.53;100922.59;8383410;28;20042;-83
2022/01/07 11:56:53;;;;;;;3.53;2.28;;;6.50;57.20;;;4.68;63.50;100924.13;8399981;28;20031;-83
2022/01/07 12:01:32;;;;;;;2.38;2.17;;;6.50;57.20;;;4.71;63.25;100924.03;8386870;28;20123;-83
2022/01/07 12:05:54;;;;;;;3.92;2.60;;;6.50;57.00;;;4.59;63.35;100894.19;8390346;28;20398;-83
2022/01/07 12:10:15;;;;;;;4.70;1.77;;;6.50;57.00;;;4.67;63.57;100906.88;8399594;28;20139;-83
2022/01/07 12:14:55;;;;;;;6.35;1.98;;;6.60;57.10;;;4.73;63.60;100901.56;8378579;28;20039;-84
2022/01/07 12:19:17;;;;;;;2.30;1.90;;;6.60;57.00;;;4.84;63.32;100909.88;8398565;28;20808;-84
2022/01/07 12:23:39;;;;;;;5.03;2.33;;;6.50;56.80;;;4.82;63.79;100910.78;8398320;28;20116;-84
2022/01/07 12:28:04;;;;;;;5.82;2.45;;;6.60;56.90;;;4.71;63.13;100880.06;8393594;28;20506;-82
2022/01/07 12:32:36;;;;;;;7.35;3.10;;;6.60;56.80;;;4.69;63.33;100853.38;8399965;28;20103;-84
2022/01/07 12:37:01;;;;;;;4.63;2.13;;;6.60;56.60;;;4.72;63.26;100866.22;8388565;28;20036;-84
2022/01/07 12:41:23;;;;;;;3.78;3.05;;;6.70;56.90;;;4.94;63.41;100884.59;8394395;28;20569;-84
2022/01/07 12:45:58;;;;;;;2.25;1.83;;;6.70;56.90;;;4.93;63.02;100876.84;8401078;28;20050;-84
2022/01/07 12:50:22;;;;;;;4.00;2.40;;;6.70;56.70;;;4.92;63.02;100864.81;8384217;28;20119;-84
2022/01/07 12:55:05;;;;;;;5.43;2.63;;;6.70;56.90;;;4.98;63.16;100874.97;8368398;28;20315;-84
2022/01/07 12:59:29;;;;;;;5.45;2.33;;;6.70;56.50;;;4.97;63.06;100868.97;8419535;28;20121;-84
2022/01/07 13:04:09;;;;;;;5.55;2.67;;;6.70;56.60;;;4.90;63.50;100856.25;8397434;28;20091;-84
2022/01/07 13:08:36;;;;;;;5.65;2.50;;;6.80;56.70;;;5.02;63.21;100867.09;8383836;28;20128;-84
2022/01/07 13:13:29;;;;;;;6.15;2.42;;;6.80;56.70;;;4.97;63.40;100852.56;8401083;28;20122;-84
2022/01/07 13:17:51;;;;;;;4.25;2.13;;;6.70;56.70;;;5.02;63.05;100854.16;8378384;28;20032;-84
2022/01/07 13:22:13;;;;;;;4.65;2.65;;;6.80;56.80;;;4.96;63.15;100845.69;8390400;28;20131;-84
2022/01/07 13:26:37;;;;;;;6.30;2.55;;;6.80;56.80;;;4.80;63.22;100819.44;8385277;28;20036;-83
2022/01/07 13:30:59;;;;;;;4.22;1.95;;;6.80;56.80;;;4.96;63.05;100841.38;8387483;28;20120;-84
2022/01/07 13:35:21;;;;;;;3.08;1.73;;;6.70;56.80;;;5.08;63.15;100858.28;8385429;28;20036;-84
2022/01/07 13:39:46;;;;;;;2.85;2.65;;;6.90;57.00;;;4.86;63.01;100827.00;8406145;28;20131;-84
2022/01/07 13:44:08;;;;;;;2.83;2.05;;;6.80;56.80;;;5.04;63.27;100846.31;8391756;28;20127;-83
2022/01/07 13:48:30;;;;;;;5.00;2.65;;;6.80;57.00;;;5.10;62.93;100859.06;8387837;28;20115;-84
2022/01/07 13:52:53;;;;;;;2.60;1.98;;;6.80;56.90;;;5.06;63.33;100849.72;8392752;28;20111;-84
2022/01/07 13:57:15;;;;;;;2.72;2.00;;;6.80;57.10;;;4.96;63.03;100835.34;8400734;28;20046;-84
2022/01/07 14:01:51;;;;;;;4.57;2.63;;;6.50;57.00;;;4.94;63.16;100825.06;8385469;28;20441;-83
2022/01/07 14:06:17;;;;;;;3.85;2.17;;;6.70;57.10;;;5.05;63.18;100846.28;8401249;28;20115;-83
2022/01/07 14:10:41;;;;;;;5.07;2.72;;;6.80;57.20;;;4.97;62.79;100829.28;8386631;28;20111;-84
2022/01/07 14:15:10;;;;;;;4.32;2.28;;;6.80;57.30;;;4.88;63.13;100822.66;8377777;28;20067;-83
2022/01/07 14:19:58;;;;;;;7.28;2.90;;;6.80;57.40;;;4.94;63.30;100834.53;8410397;28;20099;-82
2022/01/07 14:24:19;;;;;;;2.55;2.30;;;6.70;57.50;;;4.94;63.11;100842.31;8387506;28;20109;-85
2022/01/07 14:28:46;;;;;;;4.55;3.03;;;6.70;57.60;;;4.93;63.01;100843.22;8384937;28;20112;-83
2022/01/07 14:33:09;;;;;;;5.55;3.05;;;6.60;58.00;;;4.87;62.88;100839.06;8404833;28;20533;-84
2022/01/07 14:37:32;;;;;;;3.30;2.28;;;6.60;57.70;;;4.79;63.34;100833.28;8394051;28;20043;-83
2022/01/07 14:41:54;;;;;;;3.80;3.30;;;6.60;57.70;;;4.88;62.98;100848.50;8369974;28;20107;-82
2022/01/07 14:46:16;;;;;;;2.70;2.20;;;6.60;57.80;;;4.87;62.92;100850.25;8398984;28;20099;-83
2022/01/07 14:50:38;;;;;;;4.40;2.95;;;6.60;57.80;;;4.75;63.15;100842.88;8402575;28;20560;-83
2022/01/07 14:54:59;;;;;;;5.38;2.63;;;6.60;57.90;;;4.75;63.25;100837.69;8392617;28;20040;-83
2022/01/07 14:59:22;;;;;;;5.45;3.58;;;6.60;57.90;;;4.66;63.01;100833.63;8377594;28;20031;-83
2022/01/07 15:03:43;;;;;;;9.93;2.78;;;6.50;57.90;;;4.81;63.21;100857.38;8391551;28;20463;-84
2022/01/07 15:08:06;;;;;;;4.13;2.60;;;6.50;58.10;;;4.74;63.12;100840.31;8402528;28;20111;-84
2022/01/07 15:12:28;;;;;;;1.90;1.80;;;6.40;58.00;;;4.75;63.24;100847.19;8385760;28;20113;-83
2022/01/07 15:16:50;;;;;;;4.50;2.60;;;6.50;58.10;;;4.54;63.23;100813.31;8394219;28;20120;-83
2022/01/07 15:21:12;;;;;;;2.50;2.30;;;6.40;58.10;;;4.79;63.42;100854.81;8397432;28;20028;-83
2022/01/07 15:25:34;;;;;;;2.83;2.20;;;6.40;58.20;;;4.60;63.22;100826.06;8382481;28;20040;-84
2022/01/07 15:29:56;;;;;;;3.00;2.70;;;6.40;58.20;;;4.69;63.41;100843.03;8379867;28;20507;-84
2022/01/07 15:34:18;;;;;;;3.83;2.78;;;6.40;58.30;;;4.66;63.10;100832.78;8388371;28;20123;-82
2022/01/07 15:38:39;;;;;;;6.97;2.85;;;6.30;58.30;;;4.67;63.58;100844.81;8394262;28;20028;-83
2022/01/07 15:43:01;;;;;;;3.92;2.63;;;6.40;58.40;;;4.70;63.11;100852.50;8406100;28;20111;-82
2022/01/07 15:47:23;;;;;;;4.13;2.30;;;6.40;58.40;;;4.67;63.28;100855.16;8378547;28;20119;-83
2022/01/07 15:51:45;;;;;;;2.97;2.63;;;6.30;58.40;;;4.54;63.40;100830.56;8402818;28;20115;-83
2022/01/07 15:56:06;;;;;;;4.75;2.25;;;6.30;58.40;;;4.64;63.60;100850.06;8385827;28;20039;-83
2022/01/07 16:00:28;;;;;;;5.75;3.10;;;6.30;58.40;;;4.38;63.24;100806.88;8382614;28;20112;-83
2022/01/07 16:04:50;;;;;;;6.38;3.60;;;6.30;58.70;;;4.58;63.18;100845.94;8385640;28;20507;-82
2022/01/07 16:09:12;;;;;;;3.88;2.90;;;6.30;58.60;;;4.55;63.37;100840.00;8391962;28;20119;-83
2022/01/07 16:13:36;;;;;;;3.67;3.13;;;6.30;58.70;;;4.58;63.73;100839.91;8390676;28;20119;-83
2022/01/07 16:17:58;;;;;;;4.28;2.70;;;6.30;58.70;;;4.52;63.12;100830.59;8385622;28;20059;-84
2022/01/07 16:22:20;;;;;;;4.68;3.30;;;6.30;58.70;;;4.49;63.41;100830.69;8383118;28;20032;-83
2022/01/07 16:26:43;;;;;;;3.42;2.35;;;6.20;58.70;;;4.39;63.70;100822.31;8396801;28;20048;-83
2022/01/07 16:31:05;;;;;;;3.30;2.28;;;6.20;58.80;;;4.53;63.86;100841.78;8393125;28;20123;-83
2022/01/07 16:35:27;;;;;;;3.78;2.58;;;6.20;58.80;;;4.28;63.70;100805.44;8388590;28;20036;-83
2022/01/07 16:39:49;;;;;;;4.25;2.55;;;6.20;59.10;;;4.42;63.74;100824.81;8391326;28;20110;-83
2022/01/07 16:44:11;;;;;;;3.80;2.83;;;6.10;58.70;;;4.50;63.49;100836.69;8381477;28;20127;-83
2022/01/07 16:48:32;;;;;;;3.25;2.58;;;6.20;58.90;;;4.43;63.85;100830.88;8377760;28;20039;-83
2022/01/07 16:52:55;;;;;;;2.80;2.28;;;6.20;58.80;;;4.51;63.59;100839.25;8388813;28;20116;-86
2022/01/07 16:57:16;;;;;;;4.40;3.10;;;6.20;58.80;;;4.50;63.84;100834.13;8407743;28;20041;-83
2022/01/07 17:01:38;;;;;;;5.43;3.45;;;6.10;58.80;;;4.44;63.99;100828.22;8377154;28;20119;-83
2022/01/07 17:06:00;;;;;;;4.78;3.53;;;6.20;58.90;;;4.39;63.59;100819.75;8384333;28;20548;-84
2022/01/07 17:10:21;;;;;;;3.05;2.75;;;6.20;58.90;;;4.38;63.97;100815.47;8387726;28;20043;-84
2022/01/07 17:14:43;;;;;;;2.45;2.25;;;6.20;58.90;;;4.53;64.09;100840.03;8374428;28;20051;-84
2022/01/07 17:19:05;;;;;;;3.72;3.08;;;6.20;58.90;;;4.56;63.71;100841.69;8355036;28;20032;-84
2022/01/07 17:23:27;;;;;;;4.80;3.53;;;6.20;58.90;;;4.43;63.83;100828.28;8397709;28;20038;-84
2022/01/07 17:27:49;;;;;;;5.68;3.80;;;6.20;58.90;;;4.31;63.73;100801.03;8392829;28;20123;-84
2022/01/07 17:32:11;;;;;;;6.68;3.28;;;6.10;59.00;;;4.43;64.13;100829.13;8413744;28;20124;-83
2022/01/07 17:36:33;;;;;;;4.35;3.33;;;6.20;59.00;;;4.35;64.02;100812.97;8361223;28;20051;-84
2022/01/07 17:40:54;;;;;;;2.92;2.70;;;6.20;58.90;;;4.41;63.83;100828.31;8373715;28;20047;-84
2022/01/07 17:45:17;;;;;;;3.13;2.83;;;6.20;59.00;;;4.34;64.09;100826.78;8408701;28;20412;-84
2022/01/07 17:49:41;;;;;;;4.70;2.95;;;6.20;59.00;;;4.43;63.81;100836.88;8386047;28;20032;-84
2022/01/07 17:54:03;;;;;;;5.20;3.15;;;6.00;58.90;;;4.43;63.83;100841.22;8403026;28;20115;-84
2022/01/07 17:58:25;;;;;;;5.95;3.35;;;6.20;59.00;;;4.51;63.91;100846.13;8377876;28;20037;-85
2022/01/07 18:02:47;;;;;;;3.30;3.00;;;6.10;58.90;;;4.35;64.02;100825.91;8389501;28;20042;-83
2022/01/07 18:07:11;;;;;;;3.30;2.70;;;6.20;59.00;;;4.42;64.13;100839.50;8382361;28;20119;-83
2022/01/07 18:11:33;;;;;;;4.25;3.85;;;6.20;59.00;;;4.45;63.69;100839.41;8373815;28;20112;-84
2022/01/07 18:15:54;;;;;;;5.53;3.30;;;6.20;59.10;;;4.42;63.84;100834.31;8398047;28;20040;-85
2022/01/07 18:20:16;;;;;;;5.57;4.07;;;6.20;59.10;;;4.32;63.95;100822.53;8357901;28;20062;-84
2022/01/07 18:24:38;;;;;;;4.43;3.50;;;6.10;59.10;;;4.44;63.66;100843.72;8363298;28;20028;-84
2022/01/07 18:29:02;;;;;;;4.45;4.03;;;6.20;59.20;;;4.36;63.75;100821.56;8372470;28;20059;-84
2022/01/07 18:33:24;;;;;;;4.20;3.50;;;6.20;59.20;;;4.48;63.86;100822.97;8377496;28;20039;-84
2022/01/07 18:37:46;;;;;;;4.03;3.60;;;6.10;59.20;;;4.22;63.90;100785.78;8375321;28;20505;-85
2022/01/07 18:42:07;;;;;;;7.57;4.57;;;6.10;59.20;;;4.47;64.24;100824.69;8372806;28;20036;-83
2022/01/07 18:46:29;;;;;;;6.75;3.58;;;6.10;59.20;;;4.38;63.92;100812.03;8368162;28;20036;-82
2022/01/07 18:50:51;;;;;;;4.30;3.20;;;6.10;59.10;;;4.37;64.30;100826.69;8382139;28;20048;-84
2022/01/07 18:55:14;;;;;;;4.22;3.55;;;6.10;59.20;;;4.28;64.32;100810.59;8350526;28;20058;-83